createdAt,value
2022-10-23T00:02:18.275Z,11.87
2022-10-23T00:05:21.852Z,11.84
2022-10-23T00:08:24.157Z,11.92
2022-10-23T00:11:29.032Z,11.94
2022-10-23T00:14:31.444Z,11.88
2022-10-23T00:17:35.141Z,11.91
2022-10-23T00:20:37.470Z,11.84
2022-10-23T00:23:40.721Z,11.81
2022-10-23T00:26:43.260Z,11.78
2022-10-23T00:29:45.641Z,11.73
2022-10-23T00:32:48.005Z,11.82
2022-10-23T00:35:50.325Z,11.78
2022-10-23T00:38:52.639Z,11.89
2022-10-23T00:41:55.276Z,11.96
2022-10-23T00:45:18.101Z,12.09
2022-10-23T00:48:20.657Z,12.18
2022-10-23T00:51:23.129Z,12.18
2022-10-23T00:54:28.011Z,12.21
2022-10-23T00:57:30.932Z,12.19
2022-10-23T01:00:45.464Z,12.23
2022-10-23T01:03:48.045Z,12.22
2022-10-23T01:07:28.769Z,12.29
2022-10-23T01:11:09.354Z,12.26
2022-10-23T01:14:14.858Z,12.26
2022-10-23T01:17:25.134Z,12.21
2022-10-23T01:20:45.477Z,12.21
2022-10-23T01:24:11.229Z,12.21
2022-10-23T01:27:28.011Z,12.21
2022-10-23T01:30:30.981Z,12.22
2022-10-23T01:33:45.248Z,12.10
2022-10-23T01:36:49.620Z,12.24
2022-10-23T01:39:55.251Z,12.32
2022-10-23T01:43:03.556Z,12.30
2022-10-23T01:46:08.725Z,12.25
2022-10-23T01:49:14.337Z,12.10
2022-10-23T01:52:18.505Z,12.14
2022-10-23T01:55:24.307Z,12.23
2022-10-23T01:58:28.343Z,12.50
2022-10-23T02:01:31.319Z,12.55
2022-10-23T02:04:45.701Z,12.46
2022-10-23T02:07:48.539Z,12.29
2022-10-23T02:11:00.001Z,12.43
2022-10-23T02:14:16.556Z,12.32
2022-10-23T02:17:40.761Z,12.22
2022-10-23T02:20:46.136Z,12.15
2022-10-23T02:24:01.328Z,12.15
2022-10-23T02:27:10.455Z,12.06
2022-10-23T02:30:15.412Z,12.03
2022-10-23T02:33:22.965Z,12.05
2022-10-23T02:36:25.210Z,11.99
2022-10-23T02:39:28.593Z,12.03
2022-10-23T02:42:55.998Z,11.95
2022-10-23T02:46:14.640Z,12.12
2022-10-23T02:49:38.602Z,12.13
2022-10-23T02:52:55.217Z,12.14
2022-10-23T02:56:08.652Z,12.14
2022-10-23T02:59:12.165Z,12.21
2022-10-23T03:02:25.904Z,12.20
2022-10-23T03:05:32.061Z,12.21
2022-10-23T03:08:55.241Z,12.24
2022-10-23T03:12:00.262Z,12.24
2022-10-23T03:15:02.600Z,12.25
2022-10-23T03:18:04.921Z,12.21
2022-10-23T03:21:07.852Z,12.20
2022-10-23T03:24:10.181Z,12.18
2022-10-23T03:27:17.328Z,12.23
2022-10-23T03:30:20.075Z,12.17
2022-10-23T03:33:26.341Z,12.14
2022-10-23T03:36:28.748Z,12.07
2022-10-23T03:39:31.093Z,12.08
2022-10-23T03:42:33.317Z,12.01
2022-10-23T03:45:38.493Z,11.95
2022-10-23T03:48:42.091Z,12.01
2022-10-23T03:51:51.873Z,12.05
2022-10-23T03:54:56.047Z,12.05
2022-10-23T03:57:58.531Z,12.01
2022-10-23T04:01:00.876Z,12.04
2022-10-23T04:04:03.254Z,11.91
2022-10-23T04:07:05.926Z,11.94
2022-10-23T04:10:08.825Z,11.77
2022-10-23T04:13:11.124Z,11.71
2022-10-23T04:16:13.573Z,11.62
2022-10-23T04:19:17.216Z,11.50
2022-10-23T04:22:19.485Z,11.32
2022-10-23T04:25:21.787Z,11.36
2022-10-23T04:28:24.290Z,11.35
2022-10-23T04:31:26.804Z,11.28
2022-10-23T04:34:29.098Z,11.28
2022-10-23T04:37:31.534Z,11.16
2022-10-23T04:40:35.321Z,11.19
2022-10-23T04:43:38.668Z,11.20
2022-10-23T04:46:41.054Z,11.19
2022-10-23T04:49:44.986Z,11.15
2022-10-23T04:52:58.403Z,11.17
2022-10-23T04:56:19.089Z,11.12
2022-10-23T04:59:25.605Z,11.02
2022-10-23T05:02:28.094Z,10.99
2022-10-23T05:05:30.761Z,10.98
2022-10-23T05:08:51.487Z,11.06
2022-10-23T05:12:17.080Z,11.14
2022-10-23T05:15:19.440Z,11.20
2022-10-23T05:18:27.730Z,11.26
2022-10-23T05:21:31.927Z,11.26
2022-10-23T05:24:35.118Z,11.25
2022-10-23T05:27:39.887Z,11.30
2022-10-23T05:30:45.864Z,11.30
2022-10-23T05:33:48.255Z,11.25
2022-10-23T05:36:50.699Z,11.13
2022-10-23T05:39:53.532Z,11.12
2022-10-23T05:42:56.477Z,11.28
2022-10-23T05:46:10.299Z,11.26
2022-10-23T05:49:18.602Z,11.27
2022-10-23T05:52:48.666Z,11.22
2022-10-23T05:56:11.314Z,11.32
2022-10-23T05:59:36.222Z,11.37
2022-10-23T06:02:54.238Z,11.42
2022-10-23T06:06:10.979Z,11.61
2022-10-23T06:09:22.453Z,11.63
2022-10-23T06:12:29.202Z,11.68
2022-10-23T06:15:31.582Z,11.74
2022-10-23T06:18:42.564Z,11.90
2022-10-23T06:21:49.357Z,11.97
2022-10-23T06:24:52.564Z,11.85
2022-10-23T06:27:59.904Z,11.80
2022-10-23T06:31:07.293Z,12.08
2022-10-23T06:34:11.737Z,12.34
2022-10-23T06:37:14.393Z,12.43
2022-10-23T06:40:22.471Z,12.41
2022-10-23T06:43:32.316Z,12.21
2022-10-23T06:47:14.408Z,12.30
2022-10-23T06:50:38.232Z,12.26
2022-10-23T06:53:46.496Z,12.18
2022-10-23T06:57:08.657Z,12.47
2022-10-23T07:00:18.490Z,12.72
2022-10-23T07:03:25.586Z,12.76
2022-10-23T07:06:28.332Z,12.62
2022-10-23T07:09:30.723Z,12.50
2022-10-23T07:12:32.915Z,12.35
2022-10-23T07:16:12.544Z,12.49
2022-10-23T07:19:15.740Z,12.50
2022-10-23T07:22:41.228Z,12.56
2022-10-23T07:25:49.404Z,12.68
2022-10-23T07:28:56.848Z,12.66
2022-10-23T07:32:04.560Z,12.51
2022-10-23T07:35:42.486Z,12.51
2022-10-23T07:38:47.929Z,12.52
2022-10-23T07:41:50.509Z,12.47
2022-10-23T07:44:53.693Z,12.62
2022-10-23T07:47:56.838Z,12.71
2022-10-23T07:51:08.573Z,12.85
2022-10-23T07:54:15.376Z,12.80
2022-10-23T07:57:38.299Z,12.85
2022-10-23T08:01:00.802Z,12.85
2022-10-23T08:04:10.732Z,12.87
2022-10-23T08:07:20.381Z,12.57
2022-10-23T08:10:24.500Z,12.80
2022-10-23T08:13:27.073Z,12.93
2022-10-23T08:16:39.607Z,13.04
2022-10-23T08:19:46.415Z,13.16
2022-10-23T08:22:51.407Z,13.34
2022-10-23T08:26:02.479Z,13.60
2022-10-23T08:29:06.790Z,13.60
2022-10-23T08:32:09.091Z,13.78
2022-10-23T08:35:23.365Z,13.87
2022-10-23T08:38:26.070Z,14.00
2022-10-23T08:41:37.657Z,14.30
2022-10-23T08:45:18.626Z,14.30
2022-10-23T08:48:35.387Z,14.48
2022-10-23T08:51:59.301Z,14.81
2022-10-23T08:55:12.266Z,14.73
2022-10-23T08:58:34.921Z,14.75
2022-10-23T09:01:47.035Z,14.59
2022-10-23T09:04:51.118Z,14.74
2022-10-23T09:08:12.811Z,14.89
2022-10-23T09:11:16.673Z,14.64
2022-10-23T09:14:56.337Z,15.12
2022-10-23T09:18:08.165Z,15.29
2022-10-23T09:21:11.166Z,15.34
2022-10-23T09:24:19.247Z,15.76
2022-10-23T09:27:21.512Z,15.87
2022-10-23T09:30:33.640Z,15.96
2022-10-23T09:33:37.319Z,16.09
2022-10-23T09:36:50.443Z,16.18
2022-10-23T09:40:16.022Z,16.08
2022-10-23T09:43:21.838Z,16.13
2022-10-23T09:46:25.726Z,16.28
2022-10-23T09:49:30.180Z,16.34
2022-10-23T09:52:36.231Z,16.30
2022-10-23T09:55:39.425Z,16.36
2022-10-23T09:58:59.416Z,16.54
2022-10-23T10:02:04.718Z,16.64
2022-10-23T10:05:33.031Z,16.57
2022-10-23T10:08:46.203Z,16.40
2022-10-23T10:11:59.421Z,16.97
2022-10-23T10:15:40.712Z,17.07
2022-10-23T10:18:51.293Z,17.18
2022-10-23T10:22:16.957Z,17.47
2022-10-23T10:25:27.241Z,17.98
2022-10-23T10:28:54.625Z,18.24
2022-10-23T10:32:50.127Z,18.53
2022-10-23T10:36:31.043Z,18.55
2022-10-23T10:39:39.791Z,18.49
2022-10-23T10:43:10.000Z,17.93
2022-10-23T10:46:40.308Z,17.51
2022-10-23T10:50:03.484Z,17.69
2022-10-23T10:53:23.682Z,17.39
2022-10-23T10:56:28.464Z,17.10
2022-10-23T10:59:32.489Z,17.32
2022-10-23T11:02:46.856Z,17.53
2022-10-23T11:05:50.730Z,17.79
2022-10-23T11:08:57.960Z,17.94
2022-10-23T11:12:21.945Z,18.32
2022-10-23T11:15:28.860Z,18.34
2022-10-23T11:18:31.335Z,18.52
2022-10-23T11:21:40.945Z,18.48
2022-10-23T11:24:49.088Z,18.70
2022-10-23T11:28:03.317Z,18.82
2022-10-23T11:31:40.003Z,18.58
2022-10-23T11:34:45.208Z,18.78
2022-10-23T11:38:01.156Z,18.94
2022-10-23T11:41:07.567Z,18.89
2022-10-23T11:44:26.820Z,19.14
2022-10-23T11:47:40.158Z,19.27
2022-10-23T11:50:46.204Z,19.31
2022-10-23T11:53:48.527Z,19.25
2022-10-23T11:57:09.284Z,19.53
2022-10-23T12:00:22.272Z,19.73
2022-10-23T12:03:39.153Z,19.68
2022-10-23T12:06:42.262Z,19.51
2022-10-23T12:09:47.022Z,19.33
2022-10-23T12:13:00.354Z,19.36
2022-10-23T12:16:03.018Z,19.23
2022-10-23T12:19:19.722Z,18.88
2022-10-23T12:22:25.006Z,18.78
2022-10-23T12:25:47.011Z,18.94
2022-10-23T12:28:52.395Z,18.89
2022-10-23T12:32:04.143Z,18.59
2022-10-23T12:35:47.833Z,18.42
2022-10-23T12:38:50.270Z,18.32
2022-10-23T12:41:52.575Z,18.23
2022-10-23T12:45:03.433Z,18.30
2022-10-23T12:48:05.760Z,18.33
2022-10-23T12:51:22.925Z,18.25
2022-10-23T12:54:25.697Z,18.16
2022-10-23T12:57:30.332Z,18.03
2022-10-23T13:00:32.694Z,18.21
2022-10-23T13:03:35.370Z,18.42
2022-10-23T13:06:38.896Z,18.33
2022-10-23T13:09:42.694Z,18.25
2022-10-23T13:13:07.397Z,18.12
2022-10-23T13:16:24.015Z,18.17
2022-10-23T13:19:27.571Z,18.14
2022-10-23T13:22:29.868Z,18.14
2022-10-23T13:25:33.415Z,18.16
2022-10-23T13:28:44.514Z,18.19
2022-10-23T13:31:47.217Z,18.05
2022-10-23T13:35:10.210Z,17.99
2022-10-23T13:38:28.364Z,17.99
2022-10-23T13:41:42.669Z,17.99
2022-10-23T13:44:44.967Z,17.85
2022-10-23T13:47:47.461Z,17.86
2022-10-23T13:50:49.812Z,17.85
2022-10-23T13:53:52.484Z,17.89
2022-10-23T13:56:55.622Z,17.93
2022-10-23T13:59:57.890Z,17.93
2022-10-23T14:03:00.214Z,17.82
2022-10-23T14:06:02.535Z,17.87
2022-10-23T14:09:06.744Z,17.78
2022-10-23T14:12:09.044Z,17.84
2022-10-23T14:15:11.765Z,17.81
2022-10-23T14:18:14.046Z,17.79
2022-10-23T14:21:20.176Z,17.80
2022-10-23T14:24:22.491Z,17.80
2022-10-23T14:27:24.860Z,17.80
2022-10-23T14:30:27.141Z,17.74
2022-10-23T14:33:29.449Z,17.75
2022-10-23T14:36:38.845Z,17.73
2022-10-23T14:39:52.292Z,17.72
2022-10-23T14:42:54.565Z,17.68
2022-10-23T14:45:56.860Z,17.65
2022-10-23T14:49:02.349Z,17.61
2022-10-23T14:52:05.070Z,17.58
2022-10-23T14:55:07.813Z,17.60
2022-10-23T14:58:10.132Z,17.63
2022-10-23T15:01:12.660Z,17.62
2022-10-23T15:04:15.473Z,17.56
2022-10-23T15:07:17.779Z,17.49
2022-10-23T15:10:20.062Z,17.54
2022-10-23T15:13:22.370Z,17.52
2022-10-23T15:16:24.666Z,17.53
2022-10-23T15:19:27.053Z,17.53
2022-10-23T15:22:29.371Z,17.56
2022-10-23T15:25:31.740Z,17.47
2022-10-23T15:28:34.171Z,17.51
2022-10-23T15:31:40.918Z,17.48
2022-10-23T15:34:43.310Z,17.45
2022-10-23T15:37:45.841Z,17.39
2022-10-23T15:40:48.732Z,17.46
2022-10-23T15:43:51.984Z,17.42
2022-10-23T15:46:56.998Z,17.41
2022-10-23T15:49:59.312Z,17.41
2022-10-23T15:53:01.676Z,17.35
2022-10-23T15:56:04.171Z,17.32
2022-10-23T15:59:06.453Z,17.29
2022-10-23T16:02:10.865Z,17.34
2022-10-23T16:05:13.247Z,17.35
2022-10-23T16:08:15.488Z,17.32
2022-10-23T16:11:20.795Z,17.33
2022-10-23T16:14:23.057Z,17.32
2022-10-23T16:17:25.322Z,17.32
2022-10-23T16:20:27.614Z,17.31
2022-10-23T16:23:30.013Z,17.27
2022-10-23T16:26:32.529Z,17.28
2022-10-23T16:29:34.823Z,17.27
2022-10-23T16:32:37.092Z,17.33
2022-10-23T16:35:39.642Z,17.35
2022-10-23T16:38:50.274Z,17.26
2022-10-23T16:41:52.555Z,17.21
2022-10-23T16:44:56.773Z,17.13
2022-10-23T16:47:59.026Z,17.21
2022-10-23T16:51:05.811Z,17.18
2022-10-23T16:54:08.202Z,17.11
2022-10-23T16:57:10.389Z,17.10
2022-10-23T17:00:12.869Z,17.09
2022-10-23T17:03:15.224Z,17.10
2022-10-23T17:06:20.577Z,17.05
2022-10-23T17:09:23.741Z,17.04
2022-10-23T17:12:26.028Z,17.07
2022-10-23T17:15:28.476Z,17.00
2022-10-23T17:18:30.827Z,16.96
2022-10-23T17:21:35.473Z,16.95
2022-10-23T17:24:39.171Z,17.00
2022-10-23T17:27:42.552Z,16.93
2022-10-23T17:30:45.178Z,16.96
2022-10-23T17:33:48.260Z,16.90
2022-10-23T17:36:53.647Z,16.91
2022-10-23T17:39:58.902Z,16.75
2022-10-23T17:43:04.446Z,16.89
2022-10-23T17:46:08.535Z,16.83
2022-10-23T17:49:12.539Z,16.81
2022-10-23T17:52:15.189Z,16.78
2022-10-23T17:55:17.481Z,16.79
2022-10-23T17:58:19.750Z,16.87
2022-10-23T18:01:26.582Z,16.80
2022-10-23T18:04:28.963Z,16.74
2022-10-23T18:07:31.189Z,16.78
2022-10-23T18:10:35.461Z,16.75
2022-10-23T18:13:37.977Z,16.65
2022-10-23T18:16:40.835Z,16.68
2022-10-23T18:19:43.110Z,16.66
2022-10-23T18:22:45.477Z,16.65
2022-10-23T18:25:47.905Z,16.73
2022-10-23T18:28:51.844Z,16.70
2022-10-23T18:31:54.102Z,16.65
2022-10-23T18:34:56.345Z,16.66
2022-10-23T18:37:58.615Z,16.59
2022-10-23T18:41:00.935Z,16.61
2022-10-23T18:44:04.250Z,16.67
2022-10-23T18:47:06.520Z,16.70
2022-10-23T18:50:09.379Z,16.73
2022-10-23T18:53:11.653Z,16.66
2022-10-23T18:56:15.537Z,16.72
2022-10-23T18:59:20.269Z,16.74
2022-10-23T19:02:22.751Z,16.65
2022-10-23T19:05:25.376Z,16.70
2022-10-23T19:08:27.676Z,16.65
2022-10-23T19:11:29.921Z,16.59
2022-10-23T19:14:32.148Z,16.62
2022-10-23T19:17:34.577Z,16.64
2022-10-23T19:20:37.367Z,16.61
2022-10-23T19:23:40.991Z,16.59
2022-10-23T19:26:43.907Z,16.62
2022-10-23T19:29:48.194Z,16.53
2022-10-23T19:32:51.536Z,16.53
2022-10-23T19:35:53.784Z,16.58
2022-10-23T19:38:56.054Z,16.59
2022-10-23T19:41:58.881Z,16.53
2022-10-23T19:45:01.318Z,16.61
2022-10-23T19:48:04.206Z,16.60
2022-10-23T19:51:07.766Z,16.62
2022-10-23T19:54:10.792Z,16.69
2022-10-23T19:57:13.132Z,16.75
2022-10-23T20:00:15.564Z,16.67
2022-10-23T20:03:19.579Z,16.68
2022-10-23T20:06:24.926Z,16.74
2022-10-23T20:09:27.593Z,16.68
2022-10-23T20:12:29.892Z,16.54
2022-10-23T20:15:32.722Z,16.57
2022-10-23T20:18:35.045Z,16.57
2022-10-23T20:21:38.981Z,16.55
2022-10-23T20:24:42.439Z,16.51
2022-10-23T20:27:44.739Z,16.47
2022-10-23T20:30:47.013Z,16.45
2022-10-23T20:33:49.714Z,16.45
2022-10-23T20:36:52.308Z,16.48
2022-10-23T20:39:55.373Z,16.48
2022-10-23T20:42:57.624Z,16.47
2022-10-23T20:46:04.920Z,16.42
2022-10-23T20:49:07.383Z,16.43
2022-10-23T20:52:09.593Z,16.35
2022-10-23T20:55:11.863Z,16.37
2022-10-23T20:58:14.144Z,16.35
2022-10-23T21:01:18.304Z,16.35
2022-10-23T21:04:24.639Z,16.29
2022-10-23T21:07:27.129Z,16.23
2022-10-23T21:10:29.368Z,16.21
2022-10-23T21:13:32.054Z,16.21
2022-10-23T21:16:37.062Z,16.20
2022-10-23T21:19:39.554Z,16.19
2022-10-23T21:22:42.090Z,16.23
2022-10-23T21:25:44.593Z,16.11
2022-10-23T21:28:56.154Z,16.04
2022-10-23T21:32:09.130Z,15.95
2022-10-23T21:35:11.426Z,16.02
2022-10-23T21:38:13.690Z,15.95
2022-10-23T21:41:34.817Z,16.05
2022-10-23T21:44:37.130Z,16.06
2022-10-23T21:47:39.627Z,16.06
2022-10-23T21:50:42.018Z,15.91
2022-10-23T21:53:44.381Z,15.95
2022-10-23T21:56:48.737Z,15.99
2022-10-23T21:59:50.971Z,15.93
2022-10-23T22:02:53.271Z,15.97
2022-10-23T22:05:57.990Z,15.93
2022-10-23T22:09:00.540Z,15.91
2022-10-23T22:12:02.854Z,15.91
2022-10-23T22:15:05.588Z,15.92
2022-10-23T22:18:07.877Z,15.94
2022-10-23T22:21:16.531Z,15.94
2022-10-23T22:24:19.439Z,15.96
2022-10-23T22:27:21.717Z,15.95
2022-10-23T22:30:23.995Z,16.00
2022-10-23T22:33:26.302Z,15.85
2022-10-23T22:36:28.725Z,15.80
2022-10-23T22:39:31.019Z,15.83
2022-10-23T22:42:33.362Z,15.78
2022-10-23T22:45:35.612Z,15.77
2022-10-23T22:48:38.461Z,15.86
2022-10-23T22:51:40.990Z,15.78
2022-10-23T22:54:43.312Z,15.78
2022-10-23T22:57:45.823Z,15.86
2022-10-23T23:00:48.873Z,15.80
2022-10-23T23:03:51.593Z,15.76
2022-10-23T23:06:53.862Z,15.70
2022-10-23T23:09:56.185Z,15.85
2022-10-23T23:12:58.775Z,15.72
2022-10-23T23:16:01.307Z,15.77
2022-10-23T23:19:04.932Z,15.73
2022-10-23T23:22:07.304Z,15.52
2022-10-23T23:25:09.766Z,15.50
2022-10-23T23:28:13.205Z,15.52
2022-10-23T23:31:21.496Z,15.58
2022-10-23T23:34:23.829Z,15.46
2022-10-23T23:37:26.221Z,15.43
2022-10-23T23:40:28.517Z,15.46
2022-10-23T23:43:31.029Z,15.50
2022-10-23T23:46:33.367Z,15.45
2022-10-23T23:49:35.625Z,15.49
2022-10-23T23:52:37.854Z,15.38
2022-10-23T23:55:40.268Z,15.32
2022-10-23T23:58:42.565Z,15.34
